createdAt,value
2023-03-02T00:01:29.251Z,38.50
2023-03-02T00:03:58.067Z,39.37
2023-03-02T00:06:24.477Z,39.23
2023-03-02T00:08:50.860Z,39.58
2023-03-02T00:11:17.277Z,38.76
2023-03-02T00:13:43.709Z,37.83
2023-03-02T00:16:10.179Z,37.93
2023-03-02T00:18:36.582Z,38.90
2023-03-02T00:21:02.948Z,38.85
2023-03-02T00:23:29.311Z,40.00
2023-03-02T00:25:55.699Z,40.14
2023-03-02T00:28:22.098Z,40.53
2023-03-02T00:30:48.482Z,43.56
2023-03-02T00:33:14.917Z,39.69
2023-03-02T00:35:41.347Z,40.27
2023-03-02T00:38:07.829Z,39.46
2023-03-02T00:40:34.252Z,40.27
2023-03-02T00:43:00.647Z,40.95
2023-03-02T00:45:27.034Z,40.38
2023-03-02T00:47:53.388Z,40.49
2023-03-02T00:50:19.762Z,40.19
2023-03-02T00:52:46.136Z,42.18
2023-03-02T00:55:12.576Z,41.67
2023-03-02T00:57:39.007Z,40.76
2023-03-02T01:00:05.395Z,40.52
2023-03-02T01:02:31.874Z,41.31
2023-03-02T01:04:58.397Z,41.11
2023-03-02T01:07:24.797Z,40.71
2023-03-02T01:09:51.169Z,41.09
2023-03-02T01:12:17.533Z,40.42
2023-03-02T01:14:43.948Z,40.03
2023-03-02T01:17:10.333Z,39.73
2023-03-02T01:19:36.741Z,40.99
2023-03-02T01:22:03.111Z,41.05
2023-03-02T01:24:29.535Z,42.25
2023-03-02T01:26:55.926Z,41.83
2023-03-02T01:29:22.366Z,42.17
2023-03-02T01:31:48.803Z,41.71
2023-03-02T01:34:15.353Z,41.51
2023-03-02T01:36:41.729Z,41.39
2023-03-02T01:39:08.110Z,40.80
2023-03-02T01:41:34.499Z,40.62
2023-03-02T01:44:00.853Z,41.11
2023-03-02T01:46:27.217Z,41.17
2023-03-02T01:48:53.623Z,41.50
2023-03-02T01:51:19.988Z,39.46
2023-03-02T01:53:46.368Z,39.99
2023-03-02T01:56:12.759Z,40.41
2023-03-02T01:58:39.185Z,41.22
2023-03-02T02:01:05.616Z,40.20
2023-03-02T02:03:32.031Z,40.26
2023-03-02T02:05:58.420Z,38.41
2023-03-02T02:08:24.817Z,39.77
2023-03-02T02:10:51.178Z,39.02
2023-03-02T02:13:17.590Z,39.03
2023-03-02T02:15:44.012Z,38.34
2023-03-02T02:18:10.471Z,39.05
2023-03-02T02:20:36.857Z,39.39
2023-03-02T02:23:03.296Z,39.71
2023-03-02T02:25:29.690Z,39.24
2023-03-02T02:27:56.064Z,39.60
2023-03-02T02:30:22.447Z,39.89
2023-03-02T02:32:48.840Z,38.61
2023-03-02T02:35:15.320Z,38.84
2023-03-02T02:37:41.693Z,39.88
2023-03-02T02:40:08.083Z,39.12
2023-03-02T02:42:34.481Z,39.23
2023-03-02T02:45:00.896Z,38.34
2023-03-02T02:47:27.289Z,39.58
2023-03-02T02:49:53.658Z,40.38
2023-03-02T02:52:20.060Z,38.45
2023-03-02T02:54:46.453Z,39.60
2023-03-02T02:57:12.884Z,38.78
2023-03-02T02:59:39.291Z,39.35
2023-03-02T03:02:05.670Z,39.67
2023-03-02T03:04:32.074Z,39.25
2023-03-02T03:06:58.486Z,40.86
2023-03-02T03:09:24.976Z,39.97
2023-03-02T03:11:51.453Z,41.00
2023-03-02T03:14:17.819Z,40.38
2023-03-02T03:16:44.267Z,40.57
2023-03-02T03:19:10.746Z,39.89
2023-03-02T03:21:37.128Z,39.52
2023-03-02T03:24:03.521Z,40.69
2023-03-02T03:26:30.253Z,39.10
2023-03-02T03:28:56.873Z,40.02
2023-03-02T03:31:23.276Z,39.96
2023-03-02T03:33:49.973Z,40.05
2023-03-02T03:36:16.337Z,41.94
2023-03-02T03:38:42.737Z,40.65
2023-03-02T03:41:09.148Z,41.11
2023-03-02T03:43:35.522Z,41.44
2023-03-02T03:46:01.968Z,40.03
2023-03-02T03:48:28.393Z,41.11
2023-03-02T03:50:54.786Z,41.13
2023-03-02T03:53:21.176Z,40.71
2023-03-02T03:55:47.583Z,39.21
2023-03-02T03:58:14.047Z,39.57
2023-03-02T04:00:40.459Z,40.54
2023-03-02T04:03:06.840Z,40.29
2023-03-02T04:05:33.218Z,41.24
2023-03-02T04:07:59.587Z,40.85
2023-03-02T04:10:25.989Z,40.49
2023-03-02T04:12:52.423Z,40.43
2023-03-02T04:15:18.828Z,40.80
2023-03-02T04:17:45.210Z,41.17
2023-03-02T04:20:11.601Z,40.63
2023-03-02T04:22:38.049Z,40.78
2023-03-02T04:25:04.465Z,40.04
2023-03-02T04:27:30.845Z,40.51
2023-03-02T04:29:57.223Z,40.68
2023-03-02T04:32:23.665Z,40.94
2023-03-02T04:34:50.070Z,40.88
2023-03-02T04:37:16.454Z,40.84
2023-03-02T04:39:42.853Z,42.14
2023-03-02T04:42:09.263Z,39.83
2023-03-02T04:44:35.648Z,40.21
2023-03-02T04:47:02.036Z,41.80
2023-03-02T04:49:28.444Z,41.23
2023-03-02T04:51:54.822Z,41.29
2023-03-02T04:54:21.233Z,42.59
2023-03-02T04:56:47.610Z,41.66
2023-03-02T04:59:14.033Z,40.51
2023-03-02T05:01:40.447Z,41.55
2023-03-02T05:04:06.909Z,41.03
2023-03-02T05:06:33.663Z,39.71
2023-03-02T05:09:00.300Z,39.79
2023-03-02T05:11:26.710Z,41.78
2023-03-02T05:13:53.100Z,41.92
2023-03-02T05:16:19.638Z,41.23
2023-03-02T05:18:46.119Z,40.81
2023-03-02T05:21:12.487Z,41.15
2023-03-02T05:23:38.885Z,39.82
2023-03-02T05:26:05.263Z,41.16
2023-03-02T05:28:31.634Z,41.58
2023-03-02T05:30:58.058Z,41.26
2023-03-02T05:33:24.436Z,42.07
2023-03-02T05:35:50.926Z,42.07
2023-03-02T05:38:17.322Z,40.33
2023-03-02T05:40:43.699Z,40.39
2023-03-02T05:43:10.080Z,41.16
2023-03-02T05:45:36.546Z,40.37
2023-03-02T05:48:02.962Z,40.02
2023-03-02T05:50:29.364Z,40.70
2023-03-02T05:52:55.744Z,40.42
2023-03-02T05:55:22.118Z,40.75
2023-03-02T05:57:48.580Z,41.43
2023-03-02T06:00:14.952Z,41.37
2023-03-02T06:02:41.412Z,41.10
2023-03-02T06:05:07.808Z,41.50
2023-03-02T06:07:34.209Z,42.63
2023-03-02T06:10:00.652Z,42.98
2023-03-02T06:12:27.029Z,42.21
2023-03-02T06:14:53.421Z,41.47
2023-03-02T06:17:22.044Z,42.64
2023-03-02T06:19:48.446Z,41.75
2023-03-02T06:22:14.877Z,41.66
2023-03-02T06:24:41.315Z,41.82
2023-03-02T06:27:07.827Z,42.62
2023-03-02T06:29:34.230Z,38.38
2023-03-02T06:32:00.752Z,40.22
2023-03-02T06:34:28.216Z,41.43
2023-03-02T06:36:54.584Z,41.36
2023-03-02T06:39:20.966Z,41.24
2023-03-02T06:41:47.336Z,42.05
2023-03-02T06:44:13.736Z,41.45
2023-03-02T06:46:40.178Z,41.70
2023-03-02T06:49:06.634Z,40.77
2023-03-02T06:51:33.022Z,40.36
2023-03-02T06:53:59.563Z,40.17
2023-03-02T06:56:25.973Z,40.08
2023-03-02T06:58:52.402Z,41.69
2023-03-02T07:01:18.788Z,41.21
2023-03-02T07:03:45.220Z,40.70
2023-03-02T07:06:11.633Z,41.74
2023-03-02T07:08:38.025Z,43.21
2023-03-02T07:11:04.414Z,42.68
2023-03-02T07:13:30.814Z,40.09
2023-03-02T07:15:57.181Z,39.65
2023-03-02T07:18:23.563Z,41.60
2023-03-02T07:20:49.934Z,41.02
2023-03-02T07:23:16.369Z,40.77
2023-03-02T07:25:42.779Z,40.48
2023-03-02T07:28:09.228Z,41.05
2023-03-02T07:30:35.652Z,41.92
2023-03-02T07:33:02.057Z,41.73
2023-03-02T07:35:28.568Z,40.62
2023-03-02T07:37:55.028Z,41.88
2023-03-02T07:40:21.422Z,42.08
2023-03-02T07:42:47.810Z,42.67
2023-03-02T07:45:14.220Z,41.37
2023-03-02T07:47:40.605Z,41.71
2023-03-02T07:50:06.985Z,41.99
2023-03-02T07:52:33.390Z,41.37
2023-03-02T07:54:59.818Z,42.00
2023-03-02T07:57:26.288Z,41.41
2023-03-02T07:59:52.705Z,41.52
2023-03-02T08:02:19.138Z,42.19
2023-03-02T08:04:45.523Z,42.52
2023-03-02T08:07:11.880Z,41.66
2023-03-02T08:09:38.274Z,43.24
2023-03-02T08:12:04.644Z,41.62
2023-03-02T08:14:31.013Z,41.87
2023-03-02T08:16:57.380Z,41.84
2023-03-02T08:19:23.781Z,42.22
2023-03-02T08:21:50.172Z,42.61
2023-03-02T08:24:16.598Z,43.63
2023-03-02T08:26:42.989Z,42.55
2023-03-02T08:29:09.350Z,41.98
2023-03-02T08:31:36.135Z,41.43
2023-03-02T08:34:02.641Z,42.08
2023-03-02T08:36:29.126Z,42.09
2023-03-02T08:38:55.534Z,42.11
2023-03-02T08:41:21.946Z,41.87
2023-03-02T08:43:48.334Z,41.36
2023-03-02T08:46:14.857Z,42.13
2023-03-02T08:48:41.251Z,42.25
2023-03-02T08:51:07.625Z,42.82
2023-03-02T08:53:34.069Z,43.23
2023-03-02T08:56:00.468Z,43.92
2023-03-02T08:58:26.877Z,42.66
2023-03-02T09:00:53.335Z,43.34
2023-03-02T09:03:39.675Z,43.30
2023-03-02T09:06:06.105Z,43.79
2023-03-02T09:08:32.483Z,44.39
2023-03-02T09:10:58.853Z,43.66
2023-03-02T09:13:25.233Z,43.20
2023-03-02T09:15:51.628Z,43.08
2023-03-02T09:18:18.041Z,44.33
2023-03-02T09:20:44.564Z,44.11
2023-03-02T09:23:10.974Z,44.63
2023-03-02T09:25:37.361Z,43.11
2023-03-02T09:28:03.746Z,43.67
2023-03-02T09:30:30.162Z,43.93
2023-03-02T09:32:56.645Z,44.38
2023-03-02T09:35:23.091Z,44.62
2023-03-02T09:37:49.579Z,46.04
2023-03-02T09:40:16.039Z,45.64
2023-03-02T09:42:44.346Z,43.93
2023-03-02T09:45:10.987Z,44.46
2023-03-02T09:47:37.374Z,42.96
2023-03-02T09:50:03.788Z,43.21
2023-03-02T09:52:30.158Z,43.54
2023-03-02T09:54:56.548Z,44.18
2023-03-02T09:57:22.962Z,43.53
2023-03-02T09:59:49.346Z,44.14
2023-03-02T10:02:15.742Z,43.55
2023-03-02T10:04:42.161Z,43.42
2023-03-02T10:07:08.577Z,43.25
2023-03-02T10:09:34.954Z,43.05
2023-03-02T10:12:01.347Z,44.41
2023-03-02T10:14:27.738Z,42.76
2023-03-02T10:16:54.137Z,44.89
2023-03-02T10:19:20.525Z,43.57
2023-03-02T10:21:46.907Z,43.35
2023-03-02T10:24:13.348Z,43.18
2023-03-02T10:26:39.739Z,43.92
2023-03-02T10:29:06.129Z,43.84
2023-03-02T10:31:32.500Z,42.19
2023-03-02T10:33:58.873Z,42.86
2023-03-02T10:36:25.305Z,44.48
2023-03-02T10:38:51.677Z,42.54
2023-03-02T10:41:18.054Z,43.07
2023-03-02T10:43:44.477Z,42.52
2023-03-02T10:46:10.938Z,43.34
2023-03-02T10:48:40.919Z,43.25
2023-03-02T10:51:07.532Z,43.18
2023-03-02T10:53:33.909Z,42.19
2023-03-02T10:56:01.298Z,42.29
2023-03-02T10:58:27.660Z,41.98
2023-03-02T11:00:54.088Z,41.63
2023-03-02T11:03:20.495Z,41.50
2023-03-02T11:05:46.864Z,41.23
2023-03-02T11:08:13.227Z,40.19
2023-03-02T11:10:39.654Z,40.51
2023-03-02T11:13:06.023Z,40.78
2023-03-02T11:15:32.403Z,40.36
2023-03-02T11:17:58.844Z,41.63
2023-03-02T11:20:25.217Z,41.41
2023-03-02T11:22:51.631Z,40.90
2023-03-02T11:25:17.992Z,41.97
2023-03-02T11:27:44.390Z,41.14
2023-03-02T11:30:10.779Z,40.99
2023-03-02T11:32:37.287Z,40.91
2023-03-02T11:35:03.707Z,41.88
2023-03-02T11:37:30.123Z,42.53
2023-03-02T11:39:56.508Z,41.63
2023-03-02T11:42:23.005Z,41.92
2023-03-02T11:44:49.454Z,41.12
2023-03-02T11:47:15.919Z,42.86
2023-03-02T11:49:42.711Z,42.45
2023-03-02T11:52:09.074Z,41.99
2023-03-02T11:54:35.480Z,43.10
2023-03-02T11:57:01.869Z,46.99
2023-03-02T11:59:28.915Z,42.85
2023-03-02T12:01:55.454Z,42.91
2023-03-02T12:04:21.967Z,43.09
2023-03-02T12:06:48.367Z,42.97
2023-03-02T12:09:14.840Z,42.22
2023-03-02T12:11:41.232Z,43.40
2023-03-02T12:14:07.619Z,43.00
2023-03-02T12:16:34.435Z,44.00
2023-03-02T12:19:01.102Z,42.78
2023-03-02T12:21:27.485Z,44.00
2023-03-02T12:23:53.869Z,44.53
2023-03-02T12:26:20.309Z,43.17
2023-03-02T12:28:46.703Z,43.43
2023-03-02T12:31:13.145Z,42.64
2023-03-02T12:33:39.547Z,44.08
2023-03-02T12:36:05.919Z,43.90
2023-03-02T12:38:32.310Z,42.99
2023-03-02T12:40:58.765Z,44.07
2023-03-02T12:43:25.145Z,43.31
2023-03-02T12:45:51.532Z,43.44
2023-03-02T12:48:18.260Z,42.95
2023-03-02T12:50:44.775Z,42.79
2023-03-02T12:53:11.142Z,43.05
2023-03-02T12:55:37.583Z,43.31
2023-03-02T12:58:03.994Z,42.59
2023-03-02T13:00:30.502Z,42.13
2023-03-02T13:02:56.956Z,42.03
2023-03-02T13:05:23.443Z,42.96
2023-03-02T13:07:50.023Z,42.12
2023-03-02T13:10:16.418Z,42.46
2023-03-02T13:12:42.829Z,42.27
2023-03-02T13:15:09.207Z,41.81
2023-03-02T13:17:35.589Z,42.62
2023-03-02T13:20:01.974Z,42.75
2023-03-02T13:22:28.457Z,42.97
2023-03-02T13:24:54.919Z,43.03
2023-03-02T13:27:21.371Z,42.11
2023-03-02T13:29:47.824Z,41.14
2023-03-02T13:32:14.239Z,42.30
2023-03-02T13:34:40.647Z,42.18
2023-03-02T13:37:07.026Z,42.10
2023-03-02T13:39:33.422Z,42.38
2023-03-02T13:41:59.877Z,41.67
2023-03-02T13:44:26.294Z,41.51
2023-03-02T13:46:52.732Z,41.95
2023-03-02T13:49:19.123Z,41.03
2023-03-02T13:51:45.540Z,42.59
2023-03-02T13:54:12.083Z,41.84
2023-03-02T13:56:38.474Z,42.03
2023-03-02T13:59:04.850Z,42.29
2023-03-02T14:01:31.284Z,41.72
2023-03-02T14:03:57.804Z,43.31
2023-03-02T14:06:24.258Z,42.75
2023-03-02T14:08:50.617Z,42.93
2023-03-02T14:11:17.003Z,42.82
2023-03-02T14:13:43.382Z,43.23
2023-03-02T14:16:09.799Z,43.68
2023-03-02T14:18:36.178Z,42.52
2023-03-02T14:21:02.693Z,43.67
2023-03-02T14:23:29.154Z,43.29
2023-03-02T14:25:55.552Z,43.39
2023-03-02T14:28:21.944Z,42.65
2023-03-02T14:30:48.401Z,43.05
2023-03-02T14:33:14.831Z,44.27
2023-03-02T14:35:44.630Z,43.12
2023-03-02T14:38:10.998Z,42.57
2023-03-02T14:40:37.384Z,42.82
2023-03-02T14:43:03.788Z,42.72
2023-03-02T14:45:30.928Z,42.87
2023-03-02T14:47:57.463Z,42.96
2023-03-02T14:50:23.871Z,43.43
2023-03-02T14:52:50.257Z,42.54
2023-03-02T14:55:16.640Z,43.14
2023-03-02T14:57:43.069Z,41.63
2023-03-02T15:00:09.458Z,41.96
2023-03-02T15:02:35.928Z,42.80
2023-03-02T15:05:02.403Z,41.92
2023-03-02T15:07:28.767Z,42.88
2023-03-02T15:09:55.197Z,41.85
2023-03-02T15:12:21.601Z,40.79
2023-03-02T15:14:47.981Z,40.64
2023-03-02T15:17:14.401Z,41.63
2023-03-02T15:19:40.800Z,42.30
2023-03-02T15:22:07.367Z,42.50
2023-03-02T15:24:33.791Z,42.30
2023-03-02T15:27:01.543Z,42.16
2023-03-02T15:29:27.953Z,42.95
2023-03-02T15:31:54.512Z,43.05
2023-03-02T15:34:21.051Z,42.28
2023-03-02T15:36:47.499Z,42.14
2023-03-02T15:39:13.918Z,42.22
2023-03-02T15:41:40.381Z,42.47
2023-03-02T15:44:06.783Z,41.14
2023-03-02T15:46:33.234Z,41.13
2023-03-02T15:48:59.683Z,40.58
2023-03-02T15:51:29.349Z,41.16
2023-03-02T15:53:55.724Z,39.76
2023-03-02T15:56:22.886Z,39.38
2023-03-02T15:58:49.367Z,40.06
2023-03-02T16:01:15.779Z,40.31
2023-03-02T16:03:42.227Z,39.80
2023-03-02T16:06:08.608Z,39.73
2023-03-02T16:08:35.001Z,40.17
2023-03-02T16:11:01.458Z,39.66
2023-03-02T16:13:27.968Z,40.42
2023-03-02T16:15:54.393Z,41.87
2023-03-02T16:18:20.769Z,41.11
2023-03-02T16:20:47.174Z,40.81
2023-03-02T16:23:13.619Z,40.83
2023-03-02T16:25:40.051Z,40.94
2023-03-02T16:28:06.441Z,41.44
2023-03-02T16:30:32.843Z,41.53
2023-03-02T16:32:59.226Z,42.08
2023-03-02T16:35:25.613Z,41.42
2023-03-02T16:37:52.100Z,40.89
2023-03-02T16:40:18.484Z,41.14
2023-03-02T16:42:44.891Z,41.37
2023-03-02T16:45:11.297Z,40.67
2023-03-02T16:47:37.660Z,40.58
2023-03-02T16:50:04.086Z,40.74
2023-03-02T16:52:30.452Z,40.40
2023-03-02T16:54:56.862Z,40.31
2023-03-02T16:57:23.266Z,41.44
2023-03-02T16:59:49.645Z,41.28
2023-03-02T17:02:16.071Z,40.88
2023-03-02T17:04:42.466Z,41.28
2023-03-02T17:07:08.922Z,41.84
2023-03-02T17:09:35.316Z,42.38
2023-03-02T17:12:01.716Z,42.22
2023-03-02T17:14:28.099Z,43.52
2023-03-02T17:16:54.518Z,42.91
2023-03-02T17:19:20.874Z,43.48
2023-03-02T17:21:47.274Z,42.81
2023-03-02T17:24:13.684Z,43.34
2023-03-02T17:26:40.066Z,44.31
2023-03-02T17:29:06.480Z,44.21
2023-03-02T17:31:32.920Z,43.12
2023-03-02T17:33:59.385Z,43.41
2023-03-02T17:36:25.861Z,43.55
2023-03-02T17:38:52.220Z,44.89
2023-03-02T17:41:18.590Z,44.33
2023-03-02T17:43:45.038Z,44.24
2023-03-02T17:46:11.438Z,44.08
2023-03-02T17:48:37.960Z,44.64
2023-03-02T17:51:04.372Z,46.05
2023-03-02T17:53:30.756Z,45.07
2023-03-02T17:55:57.146Z,44.91
2023-03-02T17:58:25.264Z,44.06
2023-03-02T18:00:54.096Z,44.11
2023-03-02T18:03:20.602Z,42.15
2023-03-02T18:05:47.046Z,42.65
2023-03-02T18:08:13.411Z,41.91
2023-03-02T18:10:39.766Z,42.83
2023-03-02T18:13:06.172Z,42.09
2023-03-02T18:15:32.553Z,41.45
2023-03-02T18:17:58.935Z,41.06
2023-03-02T18:20:25.322Z,40.89
2023-03-02T18:22:51.759Z,42.16
2023-03-02T18:25:18.157Z,41.16
2023-03-02T18:27:44.558Z,41.50
2023-03-02T18:30:11.052Z,40.66
2023-03-02T18:32:37.509Z,41.48
2023-03-02T18:35:03.894Z,40.46
2023-03-02T18:37:30.347Z,41.93
2023-03-02T18:39:56.764Z,41.13
2023-03-02T18:42:23.168Z,41.11
2023-03-02T18:44:49.641Z,41.93
2023-03-02T18:47:16.040Z,43.21
2023-03-02T18:49:42.401Z,66.70
2023-03-02T18:52:08.768Z,50.07
2023-03-02T18:54:35.155Z,43.53
2023-03-02T18:57:01.569Z,42.86
2023-03-02T18:59:27.995Z,43.28
2023-03-02T19:01:54.410Z,42.90
2023-03-02T19:04:20.851Z,43.28
2023-03-02T19:06:47.215Z,42.83
2023-03-02T19:09:13.596Z,41.97
2023-03-02T19:11:39.963Z,42.15
2023-03-02T19:14:06.342Z,41.40
2023-03-02T19:16:32.747Z,41.92
2023-03-02T19:18:59.184Z,41.66
2023-03-02T19:21:25.621Z,40.90
2023-03-02T19:23:52.042Z,40.75
2023-03-02T19:26:18.405Z,42.05
2023-03-02T19:28:44.819Z,42.86
2023-03-02T19:31:11.332Z,43.28
2023-03-02T19:33:37.881Z,43.73
2023-03-02T19:36:04.282Z,44.69
2023-03-02T19:38:30.694Z,43.96
2023-03-02T19:40:57.072Z,44.45
2023-03-02T19:43:23.453Z,44.84
2023-03-02T19:45:49.901Z,45.09
2023-03-02T19:48:16.318Z,45.43
2023-03-02T19:50:42.711Z,45.54
2023-03-02T19:53:09.071Z,44.08
2023-03-02T19:55:35.460Z,44.67
2023-03-02T19:58:01.863Z,46.27
2023-03-02T20:00:28.242Z,45.97
2023-03-02T20:02:54.862Z,46.34
2023-03-02T20:05:21.311Z,45.49
2023-03-02T20:07:47.702Z,45.11
2023-03-02T20:10:14.105Z,45.12
2023-03-02T20:12:40.495Z,43.86
2023-03-02T20:15:06.905Z,43.30
2023-03-02T20:17:33.289Z,42.72
2023-03-02T20:19:59.688Z,43.26
2023-03-02T20:22:26.269Z,43.03
2023-03-02T20:24:52.730Z,43.75
2023-03-02T20:27:19.166Z,43.91
2023-03-02T20:29:45.709Z,43.53
2023-03-02T20:32:12.214Z,43.40
2023-03-02T20:34:38.722Z,43.54
2023-03-02T20:37:05.127Z,42.52
2023-03-02T20:39:31.580Z,42.46
2023-03-02T20:41:57.963Z,43.03
2023-03-02T20:44:24.385Z,41.78
2023-03-02T20:46:50.789Z,43.59
2023-03-02T20:49:17.207Z,44.12
2023-03-02T20:51:43.610Z,43.41
2023-03-02T20:54:10.081Z,43.01
2023-03-02T20:56:36.482Z,43.01
2023-03-02T20:59:02.856Z,43.63
2023-03-02T21:01:29.359Z,42.75
2023-03-02T21:03:55.773Z,44.20
2023-03-02T21:06:22.134Z,43.65
2023-03-02T21:08:48.584Z,43.82
2023-03-02T21:11:15.068Z,43.14
2023-03-02T21:13:41.612Z,43.70
2023-03-02T21:16:08.054Z,44.77
2023-03-02T21:18:34.483Z,44.24
2023-03-02T21:21:00.899Z,43.51
2023-03-02T21:23:27.275Z,44.28
2023-03-02T21:25:53.685Z,45.11
2023-03-02T21:28:20.058Z,45.63
2023-03-02T21:30:46.633Z,43.31
2023-03-02T21:33:13.034Z,45.60
2023-03-02T21:35:39.454Z,45.04
2023-03-02T21:38:05.916Z,45.49
2023-03-02T21:40:32.380Z,45.94
2023-03-02T21:42:58.783Z,45.18
2023-03-02T21:45:25.181Z,45.98
2023-03-02T21:47:51.577Z,46.95
2023-03-02T21:50:17.979Z,46.70
2023-03-02T21:52:44.367Z,46.57
2023-03-02T21:55:10.814Z,46.05
2023-03-02T21:57:37.334Z,46.77
2023-03-02T22:00:03.713Z,46.23
2023-03-02T22:02:30.122Z,46.33
2023-03-02T22:04:56.504Z,45.61
2023-03-02T22:07:22.877Z,45.52
2023-03-02T22:09:49.285Z,46.09
2023-03-02T22:12:15.670Z,47.24
2023-03-02T22:14:42.027Z,46.15
2023-03-02T22:17:08.479Z,47.35
2023-03-02T22:19:34.849Z,45.73
2023-03-02T22:22:01.270Z,45.99
2023-03-02T22:24:27.773Z,47.47
2023-03-02T22:26:54.181Z,47.51
2023-03-02T22:29:23.392Z,47.84
2023-03-02T22:31:49.834Z,45.87
2023-03-02T22:34:17.619Z,47.07
2023-03-02T22:36:45.108Z,47.20
2023-03-02T22:39:11.537Z,47.40
2023-03-02T22:41:37.902Z,47.40
2023-03-02T22:44:04.299Z,47.31
2023-03-02T22:46:30.690Z,47.52
2023-03-02T22:48:57.069Z,45.99
2023-03-02T22:51:23.461Z,46.58
2023-03-02T22:53:49.843Z,46.10
2023-03-02T22:56:16.223Z,47.32
2023-03-02T22:58:42.685Z,45.92
2023-03-02T23:01:09.217Z,46.47
2023-03-02T23:03:35.677Z,46.82
2023-03-02T23:06:02.074Z,46.59
2023-03-02T23:08:28.454Z,48.39
2023-03-02T23:10:54.854Z,46.89
2023-03-02T23:13:21.265Z,46.46
2023-03-02T23:15:47.686Z,48.58
2023-03-02T23:18:14.140Z,49.11
2023-03-02T23:20:40.503Z,49.94
2023-03-02T23:23:06.914Z,48.88
2023-03-02T23:25:33.269Z,48.28
2023-03-02T23:27:59.638Z,47.34
2023-03-02T23:30:26.017Z,47.10
2023-03-02T23:32:52.429Z,48.48
2023-03-02T23:35:18.923Z,48.11
2023-03-02T23:37:45.361Z,49.60
2023-03-02T23:40:11.756Z,48.63
2023-03-02T23:42:38.115Z,48.45
2023-03-02T23:45:04.511Z,48.64
2023-03-02T23:47:31.683Z,49.25
2023-03-02T23:49:58.081Z,49.83
2023-03-02T23:52:24.459Z,49.03
2023-03-02T23:54:50.845Z,50.16
2023-03-02T23:57:17.217Z,50.20
2023-03-02T23:59:43.603Z,50.29
